createdAt,value
2023-04-26T00:01:47.222Z,98607.91
2023-04-26T00:04:15.576Z,98600.28
2023-04-26T00:06:46.310Z,98606.44
2023-04-26T00:09:14.483Z,98606.06
2023-04-26T00:11:42.480Z,98604.38
2023-04-26T00:14:11.463Z,98613.72
2023-04-26T00:16:39.512Z,98613.88
2023-04-26T00:19:10.375Z,98619.09
2023-04-26T00:21:38.371Z,98616.59
2023-04-26T00:24:06.801Z,98615.78
2023-04-26T00:26:37.097Z,98624.44
2023-04-26T00:29:05.596Z,98623.84
2023-04-26T00:31:34.301Z,98631.78
2023-04-26T00:34:02.477Z,98638.28
2023-04-26T00:36:32.716Z,98623.69
2023-04-26T00:39:00.789Z,98628.78
2023-04-26T00:41:29.621Z,98625.59
2023-04-26T00:43:57.687Z,98627.25
2023-04-26T00:46:26.492Z,98610.38
2023-04-26T00:48:54.876Z,98621.88
2023-04-26T00:51:22.946Z,98620.94
2023-04-26T00:53:52.480Z,98616.56
2023-04-26T00:56:21.201Z,98617.09
2023-04-26T00:58:49.238Z,98617.97
2023-04-26T01:01:17.454Z,98614.81
2023-04-26T01:03:46.956Z,98617.94
2023-04-26T01:06:15.589Z,98618.63
2023-04-26T01:08:43.707Z,98624.75
2023-04-26T01:11:13.124Z,98620.09
2023-04-26T01:13:42.844Z,98625.13
2023-04-26T01:16:11.283Z,98631.38
2023-04-26T01:18:43.002Z,98627.81
2023-04-26T01:21:11.328Z,98628.78
2023-04-26T01:23:40.936Z,98624.53
2023-04-26T01:26:08.936Z,98635.22
2023-04-26T01:28:37.019Z,98638.69
2023-04-26T01:31:07.418Z,98640.69
2023-04-26T01:33:35.447Z,98642.84
2023-04-26T01:36:03.483Z,98640.09
2023-04-26T01:38:31.526Z,98642.25
2023-04-26T01:41:00.871Z,98638.78
2023-04-26T01:43:28.831Z,98646.50
2023-04-26T01:45:59.011Z,98650.03
2023-04-26T01:48:30.724Z,98651.44
2023-04-26T01:50:58.800Z,98667.66
2023-04-26T01:53:26.821Z,98670.59
2023-04-26T01:55:55.662Z,98669.25
2023-04-26T01:58:25.092Z,98666.50
2023-04-26T02:00:53.151Z,98665.78
2023-04-26T02:03:21.399Z,98666.97
2023-04-26T02:05:51.545Z,98666.59
2023-04-26T02:08:19.518Z,98670.59
2023-04-26T02:10:47.620Z,98666.78
2023-04-26T02:13:15.726Z,98664.47
2023-04-26T02:15:48.851Z,98665.97
2023-04-26T02:18:17.007Z,98670.81
2023-04-26T02:20:45.779Z,98673.19
2023-04-26T02:23:13.944Z,98678.53
2023-04-26T02:25:46.576Z,98669.00
2023-04-26T02:28:14.641Z,98666.66
2023-04-26T02:30:42.717Z,98664.16
2023-04-26T02:33:14.393Z,98666.13
2023-04-26T02:35:42.537Z,98669.97
2023-04-26T02:38:12.097Z,98672.47
2023-04-26T02:40:40.091Z,98670.66
2023-04-26T02:43:10.178Z,98666.09
2023-04-26T02:45:42.326Z,98671.03
2023-04-26T02:48:13.751Z,98666.28
2023-04-26T02:50:41.710Z,98659.09
2023-04-26T02:53:10.379Z,98668.47
2023-04-26T02:55:40.889Z,98668.31
2023-04-26T02:58:09.719Z,98664.09
2023-04-26T03:00:37.787Z,98655.59
2023-04-26T03:03:05.881Z,98662.50
2023-04-26T03:05:35.627Z,98663.31
2023-04-26T03:08:03.718Z,98662.44
2023-04-26T03:10:34.865Z,98664.47
2023-04-26T03:13:07.254Z,98659.56
2023-04-26T03:15:35.663Z,98658.38
2023-04-26T03:18:03.851Z,98660.34
2023-04-26T03:20:32.081Z,98658.59
2023-04-26T03:23:03.966Z,98663.16
2023-04-26T03:25:31.958Z,98661.47
2023-04-26T03:27:59.956Z,98660.66
2023-04-26T03:30:28.052Z,98662.63
2023-04-26T03:32:56.254Z,98662.66
2023-04-26T03:35:24.418Z,98654.69
2023-04-26T03:37:53.511Z,98657.22
2023-04-26T03:40:24.023Z,98650.94
2023-04-26T03:42:52.144Z,98643.72
2023-04-26T03:45:20.673Z,98640.91
2023-04-26T03:47:48.692Z,98649.19
2023-04-26T03:50:17.210Z,98640.72
2023-04-26T03:52:45.653Z,98648.97
2023-04-26T03:55:13.653Z,98643.84
2023-04-26T03:57:43.876Z,98650.81
2023-04-26T04:00:14.046Z,98651.31
2023-04-26T04:02:45.258Z,98651.44
2023-04-26T04:05:22.032Z,98648.06
2023-04-26T04:07:53.172Z,98660.97
2023-04-26T04:10:24.071Z,98649.88
2023-04-26T04:12:54.051Z,98655.91
2023-04-26T04:15:24.491Z,98649.63
2023-04-26T04:17:55.817Z,98655.59
2023-04-26T04:20:24.092Z,98656.69
2023-04-26T04:22:54.315Z,98656.94
2023-04-26T04:25:22.933Z,98649.53
2023-04-26T04:27:53.331Z,98662.56
2023-04-26T04:30:21.422Z,98661.09
2023-04-26T04:32:50.133Z,98660.13
2023-04-26T04:35:18.854Z,98672.47
2023-04-26T04:37:49.273Z,98674.47
2023-04-26T04:40:17.600Z,98672.91
2023-04-26T04:42:48.222Z,98676.28
2023-04-26T04:45:19.180Z,98672.63
2023-04-26T04:47:47.563Z,98678.22
2023-04-26T04:50:16.006Z,98669.91
2023-04-26T04:52:44.476Z,98679.25
2023-04-26T04:55:12.813Z,98678.72
2023-04-26T04:57:42.983Z,98684.66
2023-04-26T05:00:12.758Z,98691.72
2023-04-26T05:02:50.267Z,98680.59
2023-04-26T05:05:18.643Z,98693.69
2023-04-26T05:07:46.861Z,98692.22
2023-04-26T05:10:15.250Z,98690.56
2023-04-26T05:12:46.469Z,98699.16
2023-04-26T05:15:14.552Z,98704.06
2023-04-26T05:17:42.976Z,98699.81
2023-04-26T05:20:20.973Z,98706.66
2023-04-26T05:22:49.714Z,98712.59
2023-04-26T05:25:22.279Z,98719.25
2023-04-26T05:27:54.274Z,98715.88
2023-04-26T05:30:44.695Z,98716.72
2023-04-26T05:33:41.855Z,98725.16
2023-04-26T05:36:32.238Z,98714.25
2023-04-26T05:39:00.257Z,98711.34
2023-04-26T05:41:28.322Z,98716.47
2023-04-26T05:43:58.803Z,98722.84
2023-04-26T05:46:27.310Z,98724.34
2023-04-26T05:48:56.426Z,98738.19
2023-04-26T05:51:24.758Z,98746.28
2023-04-26T05:53:54.616Z,98750.72
2023-04-26T05:56:25.712Z,98746.44
2023-04-26T05:58:54.136Z,98743.03
2023-04-26T06:01:22.265Z,98741.59
2023-04-26T06:03:51.951Z,98750.72
2023-04-26T06:06:23.803Z,98744.13
2023-04-26T06:08:51.873Z,98732.25
2023-04-26T06:11:24.000Z,98738.19
2023-04-26T06:13:52.352Z,98734.34
2023-04-26T06:16:20.886Z,98728.94
2023-04-26T06:18:49.385Z,98717.66
2023-04-26T06:21:17.522Z,98717.78
2023-04-26T06:23:46.625Z,98718.75
2023-04-26T06:26:19.827Z,98715.47
2023-04-26T06:28:49.307Z,98715.19
2023-04-26T06:31:21.704Z,98698.41
2023-04-26T06:33:50.685Z,98701.03
2023-04-26T06:36:19.264Z,98703.06
2023-04-26T06:38:47.687Z,98702.16
2023-04-26T06:41:15.847Z,98713.19
2023-04-26T06:43:44.040Z,98704.84
2023-04-26T06:46:22.567Z,98688.38
2023-04-26T06:48:55.160Z,98693.03
2023-04-26T06:51:23.317Z,98692.81
2023-04-26T06:53:53.859Z,98696.13
2023-04-26T06:56:22.073Z,98685.34
2023-04-26T06:59:00.040Z,98696.53
2023-04-26T07:01:33.380Z,98689.22
2023-04-26T07:04:03.293Z,98699.63
2023-04-26T07:06:32.116Z,98695.88
2023-04-26T07:09:01.189Z,98703.09
2023-04-26T07:11:29.555Z,98701.88
2023-04-26T07:13:59.904Z,98702.03
2023-04-26T07:16:30.540Z,98698.69
2023-04-26T07:19:01.083Z,98692.44
2023-04-26T07:21:29.081Z,98689.28
2023-04-26T07:23:58.040Z,98682.13
2023-04-26T07:26:26.849Z,98677.47
2023-04-26T07:28:55.139Z,98678.47
2023-04-26T07:31:23.236Z,98668.16
2023-04-26T07:33:53.018Z,98668.75
2023-04-26T07:36:23.069Z,98669.59
2023-04-26T07:38:52.741Z,98669.81
2023-04-26T07:41:20.785Z,98675.59
2023-04-26T07:43:52.217Z,98673.94
2023-04-26T07:46:20.439Z,98671.88
2023-04-26T07:48:48.556Z,98662.34
2023-04-26T07:51:18.491Z,98676.88
2023-04-26T07:53:46.556Z,98670.84
2023-04-26T07:56:15.303Z,98681.81
2023-04-26T07:58:43.420Z,98674.47
2023-04-26T08:01:18.927Z,98689.72
2023-04-26T08:03:48.925Z,98677.56
2023-04-26T08:06:18.787Z,98681.63
2023-04-26T08:08:50.408Z,98683.84
2023-04-26T08:11:18.646Z,98681.72
2023-04-26T08:13:46.748Z,98695.91
2023-04-26T08:16:14.976Z,98679.38
2023-04-26T08:18:46.080Z,98682.31
2023-04-26T08:21:14.960Z,98691.25
2023-04-26T08:23:44.583Z,98690.38
2023-04-26T08:26:12.822Z,98684.22
2023-04-26T08:28:41.073Z,98692.22
2023-04-26T08:31:10.087Z,98691.00
2023-04-26T08:33:38.329Z,98688.09
2023-04-26T08:36:06.881Z,98692.78
2023-04-26T08:38:35.370Z,98694.75
2023-04-26T08:41:05.392Z,98687.88
2023-04-26T08:43:34.702Z,98684.34
2023-04-26T08:46:02.891Z,98686.84
2023-04-26T08:48:35.306Z,98692.56
2023-04-26T08:51:04.451Z,98684.66
2023-04-26T08:53:35.690Z,98693.88
2023-04-26T08:56:05.604Z,98684.09
2023-04-26T08:58:35.977Z,98683.34
2023-04-26T09:01:05.197Z,98675.16
2023-04-26T09:03:34.325Z,98675.25
2023-04-26T09:06:05.525Z,98670.59
2023-04-26T09:08:36.542Z,98676.69
2023-04-26T09:11:06.079Z,98679.94
2023-04-26T09:13:34.134Z,98674.25
2023-04-26T09:16:04.807Z,98669.06
2023-04-26T09:18:34.078Z,98668.09
2023-04-26T09:21:03.548Z,98668.03
2023-04-26T09:23:31.700Z,98663.53
2023-04-26T09:26:14.844Z,98663.88
2023-04-26T09:28:46.413Z,98666.56
2023-04-26T09:31:37.824Z,98660.91
2023-04-26T09:34:05.948Z,98655.16
2023-04-26T09:36:34.026Z,98659.84
2023-04-26T09:39:02.105Z,98652.94
2023-04-26T09:41:50.094Z,98646.25
2023-04-26T09:44:26.062Z,98650.19
2023-04-26T09:47:01.697Z,98650.91
2023-04-26T09:49:32.823Z,98655.28
2023-04-26T09:52:01.482Z,98651.91
2023-04-26T09:54:38.904Z,98655.31
2023-04-26T09:57:06.912Z,98651.97
2023-04-26T09:59:47.034Z,98651.72
2023-04-26T10:02:16.514Z,98651.25
2023-04-26T10:04:49.032Z,98641.69
2023-04-26T10:07:17.721Z,98633.78
2023-04-26T10:09:46.636Z,98631.91
2023-04-26T10:12:15.430Z,98623.06
2023-04-26T10:14:44.171Z,98628.50
2023-04-26T10:17:13.979Z,98635.47
2023-04-26T10:19:45.032Z,98642.59
2023-04-26T10:22:17.342Z,98636.97
2023-04-26T10:24:45.768Z,98634.97
2023-04-26T10:27:14.030Z,98630.53
2023-04-26T10:30:00.933Z,98633.25
2023-04-26T10:32:31.204Z,98625.25
2023-04-26T10:35:12.073Z,98619.41
2023-04-26T10:37:54.941Z,98622.50
2023-04-26T10:40:27.308Z,98625.28
2023-04-26T10:43:13.626Z,98615.53
2023-04-26T10:45:42.732Z,98603.06
2023-04-26T10:48:21.913Z,98609.59
2023-04-26T10:51:05.560Z,98611.28
2023-04-26T10:53:33.963Z,98614.66
2023-04-26T10:56:02.003Z,98597.84
2023-04-26T10:58:31.040Z,98602.41
2023-04-26T11:01:06.247Z,98611.03
2023-04-26T11:03:37.148Z,98615.22
2023-04-26T11:06:07.200Z,98603.97
2023-04-26T11:08:36.540Z,98600.84
2023-04-26T11:11:09.949Z,98604.94
2023-04-26T11:13:38.667Z,98601.34
2023-04-26T11:16:09.535Z,98587.66
2023-04-26T11:18:39.842Z,98590.81
2023-04-26T11:21:08.041Z,98571.94
2023-04-26T11:23:36.555Z,98569.53
2023-04-26T11:26:05.599Z,98574.28
2023-04-26T11:28:34.757Z,98572.72
2023-04-26T11:31:03.052Z,98573.03
2023-04-26T11:33:31.398Z,98556.72
2023-04-26T11:36:00.967Z,98561.53
2023-04-26T11:38:29.797Z,98543.34
2023-04-26T11:40:58.542Z,98548.09
2023-04-26T11:43:36.356Z,98544.97
2023-04-26T11:46:05.221Z,98548.13
2023-04-26T11:48:34.621Z,98546.75
2023-04-26T11:51:04.854Z,98533.31
2023-04-26T11:53:37.464Z,98534.22
2023-04-26T11:56:17.832Z,98538.28
2023-04-26T11:58:46.772Z,98528.53
2023-04-26T12:01:21.108Z,98529.59
2023-04-26T12:03:51.080Z,98521.03
2023-04-26T12:06:20.703Z,98530.03
2023-04-26T12:08:52.343Z,98532.16
2023-04-26T12:11:20.542Z,98533.91
2023-04-26T12:13:51.015Z,98530.59
2023-04-26T12:16:26.167Z,98524.25
2023-04-26T12:18:55.449Z,98527.56
2023-04-26T12:21:26.887Z,98527.19
2023-04-26T12:23:56.231Z,98529.19
2023-04-26T12:26:40.764Z,98525.44
2023-04-26T12:29:09.396Z,98526.81
2023-04-26T12:31:40.123Z,98533.25
2023-04-26T12:34:08.813Z,98532.19
2023-04-26T12:36:38.327Z,98537.38
2023-04-26T12:39:06.868Z,98528.53
2023-04-26T12:41:37.259Z,98532.66
2023-04-26T12:44:05.482Z,98524.00
2023-04-26T12:46:33.494Z,98522.09
2023-04-26T12:49:01.624Z,98517.72
2023-04-26T12:51:29.936Z,98513.50
2023-04-26T12:54:01.474Z,98498.53
2023-04-26T12:56:30.262Z,98514.34
2023-04-26T12:58:58.372Z,98513.81
2023-04-26T13:01:26.966Z,98514.75
2023-04-26T13:03:56.691Z,98518.03
2023-04-26T13:06:25.030Z,98518.66
2023-04-26T13:08:55.566Z,98509.44
2023-04-26T13:11:25.010Z,98506.38
2023-04-26T13:13:52.990Z,98509.69
2023-04-26T13:16:21.133Z,98508.66
2023-04-26T13:18:49.290Z,98512.16
2023-04-26T13:21:17.576Z,98512.56
2023-04-26T13:23:48.229Z,98510.16
2023-04-26T13:26:18.021Z,98516.13
2023-04-26T13:28:47.647Z,98501.69
2023-04-26T13:31:17.455Z,98514.16
2023-04-26T13:33:47.129Z,98508.28
2023-04-26T13:36:15.786Z,98510.50
2023-04-26T13:38:43.923Z,98511.78
2023-04-26T13:41:12.279Z,98506.53
2023-04-26T13:43:40.361Z,98508.50
2023-04-26T13:46:09.824Z,98510.47
2023-04-26T13:48:40.989Z,98507.75
2023-04-26T13:51:09.171Z,98505.94
2023-04-26T13:53:37.222Z,98502.59
2023-04-26T13:56:05.752Z,98504.91
2023-04-26T13:58:33.812Z,98509.22
2023-04-26T14:01:01.939Z,98502.03
2023-04-26T14:03:31.616Z,98499.63
2023-04-26T14:05:59.804Z,98493.31
2023-04-26T14:08:30.391Z,98500.47
2023-04-26T14:10:58.385Z,98491.09
2023-04-26T14:13:28.954Z,98492.88
2023-04-26T14:15:56.952Z,98496.97
2023-04-26T14:18:24.998Z,98490.69
2023-04-26T14:20:54.377Z,98488.59
2023-04-26T14:23:22.448Z,98474.41
2023-04-26T14:25:52.841Z,98488.78
2023-04-26T14:28:21.180Z,98489.63
2023-04-26T14:30:49.274Z,98484.81
2023-04-26T14:33:17.346Z,98482.16
2023-04-26T14:35:45.557Z,98488.94
2023-04-26T14:38:17.679Z,98486.16
2023-04-26T14:40:46.389Z,98487.72
2023-04-26T14:43:14.443Z,98488.06
2023-04-26T14:45:44.818Z,98479.69
2023-04-26T14:48:13.175Z,98485.59
2023-04-26T14:50:41.704Z,98480.25
2023-04-26T14:53:12.425Z,98484.63
2023-04-26T14:55:44.408Z,98483.25
2023-04-26T14:58:12.858Z,98488.16
2023-04-26T15:00:40.925Z,98487.16
2023-04-26T15:03:09.053Z,98487.03
2023-04-26T15:05:37.293Z,98485.81
2023-04-26T15:08:06.140Z,98477.63
2023-04-26T15:10:34.234Z,98468.75
2023-04-26T15:13:03.869Z,98480.19
2023-04-26T15:15:32.080Z,98470.66
2023-04-26T15:18:03.473Z,98472.03
2023-04-26T15:20:33.857Z,98463.50
2023-04-26T15:23:01.916Z,98460.22
2023-04-26T15:25:29.911Z,98461.91
2023-04-26T15:27:57.875Z,98463.84
2023-04-26T15:30:27.407Z,98463.28
2023-04-26T15:32:55.507Z,98454.50
2023-04-26T15:35:24.839Z,98453.59
2023-04-26T15:37:55.486Z,98450.66
2023-04-26T15:40:24.471Z,98462.59
2023-04-26T15:42:52.528Z,98458.22
2023-04-26T15:45:20.649Z,98447.94
2023-04-26T15:47:50.035Z,98452.19
2023-04-26T15:50:20.641Z,98460.81
2023-04-26T15:52:49.947Z,98458.63
2023-04-26T15:55:17.948Z,98456.28
2023-04-26T15:57:48.460Z,98454.50
2023-04-26T16:00:17.020Z,98446.50
2023-04-26T16:02:47.164Z,98445.00
2023-04-26T16:05:16.938Z,98450.47
2023-04-26T16:07:45.164Z,98453.00
2023-04-26T16:10:13.494Z,98458.44
2023-04-26T16:12:42.840Z,98455.16
2023-04-26T16:15:11.161Z,98461.47
2023-04-26T16:17:39.661Z,98458.19
2023-04-26T16:20:08.340Z,98451.78
2023-04-26T16:22:37.706Z,98454.25
2023-04-26T16:25:06.843Z,98450.28
2023-04-26T16:27:35.103Z,98421.13
2023-04-26T16:30:03.903Z,98453.81
2023-04-26T16:32:32.246Z,98453.53
2023-04-26T16:35:00.807Z,98452.91
2023-04-26T16:37:28.839Z,98447.81
2023-04-26T16:39:58.321Z,98448.41
2023-04-26T16:42:26.475Z,98454.97
2023-04-26T16:44:55.595Z,98451.72
2023-04-26T16:47:23.569Z,98449.53
2023-04-26T16:49:53.701Z,98446.91
2023-04-26T16:52:23.749Z,98426.81
2023-04-26T16:54:51.780Z,98456.50
2023-04-26T16:57:21.194Z,98455.72
2023-04-26T16:59:51.377Z,98452.72
2023-04-26T17:02:19.513Z,98461.19
2023-04-26T17:04:47.977Z,98461.47
2023-04-26T17:07:16.391Z,98457.22
2023-04-26T17:09:44.396Z,98459.19
2023-04-26T17:12:12.465Z,98466.28
2023-04-26T17:14:42.286Z,98467.81
2023-04-26T17:17:10.266Z,98470.41
2023-04-26T17:19:40.721Z,98481.09
2023-04-26T17:22:08.778Z,98470.97
2023-04-26T17:24:37.008Z,98473.06
2023-04-26T17:27:05.300Z,98474.25
2023-04-26T17:29:35.687Z,98479.59
2023-04-26T17:32:05.538Z,98474.75
2023-04-26T17:34:38.772Z,98478.75
2023-04-26T17:37:06.851Z,98488.66
2023-04-26T17:39:34.857Z,98478.31
2023-04-26T17:42:03.893Z,98477.31
2023-04-26T17:44:31.995Z,98480.25
2023-04-26T17:47:00.011Z,98487.00
2023-04-26T17:49:29.720Z,98479.22
2023-04-26T17:52:00.152Z,98484.19
2023-04-26T17:54:30.540Z,98488.22
2023-04-26T17:56:58.760Z,98484.69
2023-04-26T17:59:27.181Z,98487.50
2023-04-26T18:01:55.422Z,98486.94
2023-04-26T18:04:23.944Z,98484.09
2023-04-26T18:06:53.561Z,98498.94
2023-04-26T18:09:21.650Z,98503.25
2023-04-26T18:11:49.608Z,98510.28
2023-04-26T18:14:18.030Z,98497.75
2023-04-26T18:16:46.244Z,98502.63
2023-04-26T18:19:14.292Z,98498.03
2023-04-26T18:21:42.466Z,98500.19
2023-04-26T18:24:14.064Z,98508.25
2023-04-26T18:26:42.128Z,98516.09
2023-04-26T18:29:12.351Z,98516.88
2023-04-26T18:31:40.517Z,98519.81
2023-04-26T18:34:10.351Z,98525.91
2023-04-26T18:36:38.691Z,98528.56
2023-04-26T18:39:06.706Z,98530.13
2023-04-26T18:41:36.223Z,98544.06
2023-04-26T18:44:13.125Z,98531.22
2023-04-26T18:46:41.508Z,98539.69
2023-04-26T18:49:10.036Z,98526.41
2023-04-26T18:51:38.026Z,98529.56
2023-04-26T18:54:06.297Z,98532.78
2023-04-26T18:56:34.403Z,98535.53
2023-04-26T18:59:03.968Z,98536.81
2023-04-26T19:01:32.087Z,98541.31
2023-04-26T19:04:00.832Z,98545.06
2023-04-26T19:06:29.036Z,98539.78
2023-04-26T19:08:57.188Z,98550.22
2023-04-26T19:11:25.585Z,98552.16
2023-04-26T19:13:56.480Z,98546.56
2023-04-26T19:16:25.931Z,98552.63
2023-04-26T19:18:58.150Z,98551.91
2023-04-26T19:21:26.708Z,98557.91
2023-04-26T19:23:54.701Z,98562.47
2023-04-26T19:26:22.754Z,98568.22
2023-04-26T19:28:52.942Z,98562.28
2023-04-26T19:31:21.018Z,98569.97
2023-04-26T19:33:50.464Z,98582.22
2023-04-26T19:36:18.463Z,98573.47
2023-04-26T19:38:48.431Z,98584.25
2023-04-26T19:41:16.621Z,98587.84
2023-04-26T19:43:44.695Z,98584.94
2023-04-26T19:46:13.353Z,98587.69
2023-04-26T19:48:44.131Z,98593.47
2023-04-26T19:51:17.372Z,98591.72
2023-04-26T19:53:47.290Z,98593.03
2023-04-26T19:56:15.309Z,98594.28
2023-04-26T19:58:43.444Z,98592.56
2023-04-26T20:01:14.693Z,98594.13
2023-04-26T20:03:42.859Z,98598.53
2023-04-26T20:06:13.817Z,98599.09
2023-04-26T20:08:43.505Z,98592.34
2023-04-26T20:11:18.174Z,98592.59
2023-04-26T20:13:49.068Z,98595.06
2023-04-26T20:16:17.241Z,98592.53
2023-04-26T20:18:45.372Z,98595.78
2023-04-26T20:21:18.446Z,98595.72
2023-04-26T20:23:49.045Z,98594.81
2023-04-26T20:26:22.132Z,98596.88
2023-04-26T20:28:53.205Z,98589.50
2023-04-26T20:31:21.274Z,98595.72
2023-04-26T20:33:49.427Z,98594.13
2023-04-26T20:36:17.769Z,98604.66
2023-04-26T20:38:46.108Z,98608.59
2023-04-26T20:41:23.746Z,98602.09
2023-04-26T20:43:58.065Z,98607.88
2023-04-26T20:46:27.538Z,98603.41
2023-04-26T20:48:55.647Z,98604.44
2023-04-26T20:51:23.759Z,98593.44
2023-04-26T20:53:51.755Z,98597.31
2023-04-26T20:56:21.219Z,98600.22
2023-04-26T20:58:49.283Z,98601.50
2023-04-26T21:01:17.754Z,98582.88
2023-04-26T21:03:46.157Z,98598.53
2023-04-26T21:06:19.672Z,98596.09
2023-04-26T21:08:51.525Z,98592.19
2023-04-26T21:11:20.925Z,98594.22
2023-04-26T21:13:49.390Z,98593.09
2023-04-26T21:16:18.770Z,98589.06
2023-04-26T21:18:47.376Z,98589.25
2023-04-26T21:21:15.439Z,98595.91
2023-04-26T21:23:43.450Z,98598.19
2023-04-26T21:26:11.480Z,98593.97
2023-04-26T21:28:52.721Z,98598.31
2023-04-26T21:31:20.873Z,98596.09
2023-04-26T21:33:49.027Z,98601.06
2023-04-26T21:36:17.303Z,98604.03
2023-04-26T21:38:45.818Z,98605.63
2023-04-26T21:41:16.957Z,98607.66
2023-04-26T21:43:46.360Z,98605.84
2023-04-26T21:46:14.547Z,98602.28
2023-04-26T21:48:42.857Z,98606.41
2023-04-26T21:51:10.900Z,98603.00
2023-04-26T21:53:38.986Z,98605.72
2023-04-26T21:56:07.637Z,98615.66
2023-04-26T21:58:35.736Z,98614.13
2023-04-26T22:02:37.920Z,98616.59
2023-04-26T22:05:06.666Z,98610.31
2023-04-26T22:07:34.965Z,98610.72
2023-04-26T22:10:03.207Z,98611.16
2023-04-26T22:12:31.348Z,98613.00
2023-04-26T22:14:59.439Z,98615.31
2023-04-26T22:17:27.547Z,98611.97
2023-04-26T22:19:56.856Z,98609.94
2023-04-26T22:22:25.102Z,98607.00
2023-04-26T22:24:53.199Z,98609.56
2023-04-26T22:27:21.574Z,98613.59
2023-04-26T22:29:49.624Z,98613.53
2023-04-26T22:32:17.742Z,98609.81
2023-04-26T22:34:45.782Z,98608.84
2023-04-26T22:37:21.115Z,98615.47
2023-04-26T22:39:49.851Z,98610.75
2023-04-26T22:42:17.893Z,98613.66
2023-04-26T22:44:46.636Z,98612.78
2023-04-26T22:47:14.689Z,98609.09
2023-04-26T22:49:42.741Z,98617.78
2023-04-26T22:52:20.204Z,98623.34
2023-04-26T22:54:53.617Z,98623.34
2023-04-26T22:57:21.722Z,98620.41
2023-04-26T22:59:49.783Z,98619.06
2023-04-26T23:02:18.250Z,98619.66
2023-04-26T23:04:47.065Z,98617.34
2023-04-26T23:07:15.171Z,98624.66
2023-04-26T23:09:43.363Z,98621.75
2023-04-26T23:12:12.868Z,98630.47
2023-04-26T23:14:41.252Z,98634.63
2023-04-26T23:17:12.498Z,98634.63
2023-04-26T23:19:40.509Z,98627.94
2023-04-26T23:22:08.610Z,98630.03
2023-04-26T23:24:36.596Z,98623.66
2023-04-26T23:27:04.673Z,98620.69
2023-04-26T23:29:34.158Z,98623.66
2023-04-26T23:32:02.231Z,98628.00
2023-04-26T23:34:30.249Z,98633.19
2023-04-26T23:36:58.780Z,98630.88
2023-04-26T23:39:35.869Z,98635.25
2023-04-26T23:42:04.182Z,98634.19
2023-04-26T23:44:32.364Z,98638.97
2023-04-26T23:47:03.755Z,98635.03
2023-04-26T23:49:31.797Z,98635.22
2023-04-26T23:52:02.091Z,98627.78
2023-04-26T23:54:32.448Z,98619.09
2023-04-26T23:57:04.045Z,98633.78
2023-04-26T23:59:32.074Z,98622.00
